Time;durP1;ratioP1;P1;durP2;ratioP2;P2;SDS_P1;SDS_P2;PMS_P1;PMS_P2;Temp;Humidity;BMP_temperature;BMP_pressure;BME280_temperature;BME280_humidity;BME280_pressure;Samples;Min_cycle;Max_cycle;Signal;HPM_P1;HPM_P2
2022/03/27 00:01:10;;;;;;;12.60;7.45;;;;;;;9.17;77.53;103116.00;5107141;28;20089;-56
2022/03/27 00:03:35;;;;;;;13.48;7.30;;;;;;;9.05;78.40;103115.81;5102423;28;20028;-57
2022/03/27 00:06:01;;;;;;;13.38;7.10;;;;;;;9.03;78.40;103122.97;5107509;28;20031;-57
2022/03/27 00:08:27;;;;;;;11.23;7.10;;;;;;;9.11;78.27;103119.84;5108772;28;20074;-57
2022/03/27 00:13:37;;;;;;;12.70;7.00;;;;;;;9.08;79.20;103126.19;5096137;28;20054;-57
2022/03/27 00:16:02;;;;;;;14.52;7.70;;;;;;;9.04;78.54;103126.50;5107782;28;20482;-56
2022/03/27 00:18:27;;;;;;;13.80;7.50;;;;;;;9.05;78.67;103128.19;5098240;28;20032;-55
2022/03/27 00:20:53;;;;;;;13.68;7.35;;;;;;;9.05;79.16;103120.25;5095052;28;20028;-57
2022/03/27 00:23:18;;;;;;;12.68;7.55;;;;;;;9.03;79.03;103128.28;5106823;28;20040;-57
2022/03/27 00:25:45;;;;;;;11.43;7.15;;;;;;;9.07;78.21;103127.16;5108927;28;20023;-57
2022/03/27 00:28:11;;;;;;;14.25;6.75;;;;;;;9.06;79.27;103127.22;5114310;28;20390;-57
2022/03/27 00:30:37;;;;;;;13.30;6.95;;;;;;;9.01;78.85;103120.44;5098796;28;20459;-56
2022/03/27 00:33:02;;;;;;;12.82;7.25;;;;;;;8.87;80.14;103117.78;5110898;28;20030;-56
2022/03/27 00:35:27;;;;;;;11.07;6.85;;;;;;;8.86;79.82;103116.09;5098721;28;20523;-57
2022/03/27 00:37:53;;;;;;;13.13;7.03;;;;;;;8.72;79.94;103119.56;5100862;28;20035;-57
2022/03/27 00:40:19;;;;;;;13.85;7.07;;;;;;;8.72;80.75;103115.13;5094003;28;20038;-56
2022/03/27 00:42:45;;;;;;;11.40;6.68;;;;;;;8.77;80.13;103122.78;5106666;28;20086;-56
2022/03/27 00:45:10;;;;;;;12.18;6.70;;;;;;;8.80;80.57;103117.31;5097534;28;20031;-57
2022/03/27 00:47:35;;;;;;;12.85;7.05;;;;;;;8.73;80.54;103116.84;5109200;28;20081;-57
2022/03/27 00:50:01;;;;;;;11.55;6.70;;;;;;;8.79;80.65;103109.47;5113676;28;20028;-57
2022/03/27 00:52:26;;;;;;;10.85;6.43;;;;;;;8.79;80.41;103110.31;5106931;28;20028;-57
2022/03/27 00:54:51;;;;;;;10.30;6.60;;;;;;;8.78;80.32;103107.78;5101561;28;20106;-57
2022/03/27 00:57:16;;;;;;;12.10;7.00;;;;;;;8.75;80.87;103114.94;5106708;28;20100;-57
2022/03/27 00:59:42;;;;;;;12.93;6.93;;;;;;;8.68;80.28;103118.91;5099475;28;20019;-57
2022/03/27 01:02:10;;;;;;;11.88;6.78;;;;;;;8.70;80.58;103111.75;5101015;28;20052;-57
2022/03/27 01:04:41;;;;;;;13.10;6.88;;;;;;;8.66;81.16;103104.94;5108863;28;20032;-57
2022/03/27 01:07:06;;;;;;;12.13;6.88;;;;;;;8.64;80.50;103106.81;5114586;28;20085;-57
2022/03/27 01:09:38;;;;;;;10.30;6.70;;;;;;;8.63;80.47;103105.09;5110460;28;20040;-57
2022/03/27 01:12:31;;;;;;;13.73;6.72;;;;;;;8.66;80.10;103112.88;5102719;28;20016;-57
2022/03/27 01:14:58;;;;;;;12.80;7.10;;;;;;;8.61;80.42;103107.84;5102644;28;20560;-57
2022/03/27 01:17:26;;;;;;;12.88;6.90;;;;;;;8.56;80.53;103106.41;5110432;28;20415;-57
2022/03/27 01:19:54;;;;;;;14.77;7.32;;;;;;;8.50;80.89;103110.25;5101018;28;20035;-57
2022/03/27 01:22:20;;;;;;;12.32;7.00;;;;;;;8.54;80.83;103100.38;5099125;28;20023;-56
2022/03/27 01:24:47;;;;;;;14.15;7.18;;;;;;;8.45;81.07;103107.88;5112201;27;20024;-57
2022/03/27 01:27:13;;;;;;;9.90;6.57;;;;;;;8.46;81.15;103109.59;5092761;28;20028;-57
2022/03/27 01:29:38;;;;;;;12.48;7.07;;;;;;;8.44;81.15;103107.97;5103533;28;20076;-57
2022/03/27 01:32:06;;;;;;;11.55;6.80;;;;;;;8.40;81.20;103109.97;5098076;28;20035;-57
2022/03/27 01:34:32;;;;;;;13.68;7.25;;;;;;;8.37;81.73;103104.84;5110521;28;20034;-57
2022/03/27 01:37:06;;;;;;;15.00;7.20;;;;;;;8.41;81.50;103111.66;5105023;27;20032;-57
2022/03/27 01:39:31;;;;;;;14.18;7.38;;;;;;;8.39;81.03;103107.41;5101402;28;20032;-57
2022/03/27 01:41:56;;;;;;;11.98;7.20;;;;;;;8.36;81.42;103108.44;5109424;28;20082;-57
2022/03/27 01:44:21;;;;;;;13.00;7.88;;;;;;;8.33;81.90;103108.59;5105279;28;20067;-57
2022/03/27 01:46:47;;;;;;;15.80;7.45;;;;;;;8.30;81.91;103109.63;5096620;28;20477;-57
2022/03/27 01:49:15;;;;;;;11.88;7.82;;;;;;;8.32;81.64;103112.19;5099466;28;20028;-57
2022/03/27 01:51:41;;;;;;;12.80;7.32;;;;;;;8.31;81.41;103110.50;5101895;28;20465;-55
2022/03/27 01:54:07;;;;;;;11.45;7.72;;;;;;;8.14;82.49;103104.41;5107573;28;20043;-57
2022/03/27 01:56:32;;;;;;;13.10;7.75;;;;;;;8.15;82.62;103110.53;5110482;28;20397;-57
2022/03/27 01:58:58;;;;;;;13.98;7.65;;;;;;;8.12;82.90;103106.28;5113422;28;20104;-57
2022/03/27 02:01:23;;;;;;;11.73;7.78;;;;;;;8.14;82.34;103109.69;5108782;28;20510;-57
2022/03/27 02:03:49;;;;;;;13.93;7.82;;;;;;;8.09;82.40;103106.44;5111663;28;20440;-57
2022/03/27 02:06:15;;;;;;;14.98;8.63;;;;;;;8.08;82.83;103100.34;5098785;28;20059;-56
2022/03/27 02:08:42;;;;;;;13.98;8.60;;;;;;;7.97;83.60;103102.75;5104952;28;20055;-57
2022/03/27 02:11:08;;;;;;;14.18;8.52;;;;;;;7.97;83.56;103097.44;5103803;28;20036;-57
2022/03/27 02:13:34;;;;;;;13.68;8.27;;;;;;;7.90;83.67;103102.22;5113243;28;20032;-56
2022/03/27 02:15:59;;;;;;;14.82;8.48;;;;;;;7.83;84.05;103102.69;5111927;28;20076;-57
2022/03/27 02:18:26;;;;;;;13.45;8.65;;;;;;;7.92;83.57;103100.38;5113385;28;20112;-57
2022/03/27 02:20:52;;;;;;;15.32;8.80;;;;;;;7.75;83.90;103108.41;5104633;28;20031;-57
2022/03/27 02:23:17;;;;;;;14.18;8.90;;;;;;;7.77;84.31;103111.78;5102288;28;20038;-57
2022/03/27 02:25:43;;;;;;;17.58;8.82;;;;;;;7.82;83.84;103109.75;5105957;28;20031;-57
2022/03/27 02:28:08;;;;;;;13.88;8.25;;;;;;;7.79;83.36;103104.63;5100015;28;20028;-56
2022/03/27 02:30:34;;;;;;;12.27;8.25;;;;;;;7.68;83.59;103102.59;5110207;28;20047;-57
2022/03/27 02:32:59;;;;;;;15.68;9.32;;;;;;;7.56;84.27;103104.16;5103008;28;20031;-57
2022/03/27 02:35:25;;;;;;;14.65;9.15;;;;;;;7.48;84.96;103111.63;5112850;28;20036;-57
2022/03/27 02:37:50;;;;;;;15.35;9.52;;;;;;;7.56;85.52;103109.44;5106769;28;20450;-56
2022/03/27 02:40:16;;;;;;;18.40;10.00;;;;;;;7.50;86.10;103110.59;5110351;28;20038;-57
2022/03/27 02:42:41;;;;;;;16.83;10.55;;;;;;;7.54;86.56;103101.59;5106178;28;20035;-57
2022/03/27 02:45:07;;;;;;;23.23;12.40;;;;;;;7.47;86.64;103102.88;5102439;28;20645;-56
2022/03/27 02:47:33;;;;;;;22.00;12.82;;;;;;;7.53;87.09;103104.31;5105942;28;20080;-57
2022/03/27 02:49:58;;;;;;;25.75;14.52;;;;;;;7.47;87.67;103107.28;5108770;28;20032;-56
2022/03/27 02:52:24;;;;;;;23.83;14.57;;;;;;;7.52;87.94;103106.13;5103860;28;20059;-57
2022/03/27 02:54:50;;;;;;;24.77;15.57;;;;;;;7.52;89.19;103099.97;5104333;28;20420;-57
2022/03/27 02:57:15;;;;;;;25.20;16.05;;;;;;;7.47;89.64;103099.38;5099139;28;20045;-56
2022/03/27 02:59:40;;;;;;;24.90;17.17;;;;;;;7.44;89.54;103104.84;5101018;28;20023;-57
2022/03/27 03:02:06;;;;;;;25.83;16.55;;;;;;;7.48;89.72;103095.78;5106536;28;20386;-57
2022/03/27 03:04:34;;;;;;;29.25;17.50;;;;;;;7.54;89.89;103095.44;5110751;28;20429;-57
2022/03/27 03:07:00;;;;;;;24.98;17.50;;;;;;;7.52;90.11;103099.97;5103821;28;20068;-56
2022/03/27 03:09:25;;;;;;;25.02;17.15;;;;;;;7.50;90.93;103100.03;5108073;28;20489;-57
2022/03/27 03:11:50;;;;;;;23.95;17.23;;;;;;;7.44;91.39;103094.28;5107722;28;20039;-57
2022/03/27 03:14:16;;;;;;;26.40;17.85;;;;;;;7.44;91.11;103096.91;5108248;28;20032;-57
2022/03/27 03:16:41;;;;;;;24.58;16.95;;;;;;;7.44;91.11;103089.81;5103284;28;20063;-57
2022/03/27 03:19:06;;;;;;;25.10;16.98;;;;;;;7.41;91.40;103100.56;5098417;28;20054;-56
2022/03/27 03:21:32;;;;;;;26.10;17.55;;;;;;;7.38;91.11;103088.41;5100097;28;20124;-56
2022/03/27 03:23:57;;;;;;;26.40;17.80;;;;;;;7.37;91.19;103099.91;5109639;28;20154;-57
2022/03/27 03:26:22;;;;;;;24.85;17.20;;;;;;;7.32;91.82;103091.38;5097796;28;20035;-56
2022/03/27 03:28:48;;;;;;;26.10;17.98;;;;;;;7.35;92.24;103091.19;5108293;28;20046;-58
2022/03/27 03:31:14;;;;;;;26.70;18.48;;;;;;;7.36;92.44;103087.59;5107249;28;20031;-56
2022/03/27 03:33:39;;;;;;;25.30;17.80;;;;;;;7.37;91.97;103094.63;5108832;28;20035;-56
2022/03/27 03:36:05;;;;;;;25.00;17.00;;;;;;;7.36;92.03;103084.13;5100920;28;20084;-57
2022/03/27 03:38:30;;;;;;;27.55;18.65;;;;;;;7.28;93.02;103089.81;5108087;28;20362;-57
2022/03/27 03:40:56;;;;;;;26.95;18.40;;;;;;;7.31;92.79;103088.81;5101681;28;20038;-57
2022/03/27 03:43:21;;;;;;;28.92;18.17;;;;;;;7.35;92.82;103083.28;5105666;28;20028;-57
2022/03/27 03:45:47;;;;;;;24.52;17.67;;;;;;;7.29;92.15;103064.31;5109082;28;20019;-57
2022/03/27 03:48:12;;;;;;;26.33;17.25;;;;;;;7.48;92.60;103080.81;5110291;28;20037;-57
2022/03/27 03:50:38;;;;;;;24.60;17.00;;;;;;;7.50;91.81;103078.94;5098133;28;20027;-56
2022/03/27 03:53:04;;;;;;;27.38;19.38;;;;;;;7.45;92.33;103080.13;5103586;28;20119;-57
2022/03/27 03:55:30;;;;;;;26.50;18.27;;;;;;;7.44;92.00;103083.72;5107951;28;20054;-57
2022/03/27 03:57:56;;;;;;;27.27;19.00;;;;;;;7.43;92.29;103090.78;5110352;28;20027;-57
2022/03/27 04:00:25;;;;;;;27.08;18.88;;;;;;;7.36;92.33;103092.06;5096924;28;20050;-57
2022/03/27 04:02:51;;;;;;;29.88;19.75;;;;;;;7.36;92.60;103092.88;5104654;28;20027;-56
2022/03/27 04:05:16;;;;;;;29.63;18.83;;;;;;;7.36;92.85;103098.16;5105299;28;20035;-57
2022/03/27 04:07:42;;;;;;;27.83;19.70;;;;;;;7.30;93.75;103093.22;5100312;28;20447;-57
2022/03/27 04:10:07;;;;;;;27.92;19.50;;;;;;;7.30;93.59;103092.41;5098358;28;20036;-56
2022/03/27 04:12:33;;;;;;;29.33;20.60;;;;;;;7.35;93.73;103096.47;5103873;28;20114;-57
2022/03/27 04:14:58;;;;;;;30.38;19.73;;;;;;;7.38;93.24;103095.44;5107162;28;20031;-57
2022/03/27 04:17:24;;;;;;;28.35;19.92;;;;;;;7.33;93.82;103094.84;5110326;28;20371;-57
2022/03/27 04:19:49;;;;;;;27.60;19.20;;;;;;;7.32;93.68;103086.09;5114480;28;20031;-57
2022/03/27 04:22:14;;;;;;;29.50;19.95;;;;;;;7.35;93.32;103093.81;5112774;28;20061;-55
2022/03/27 04:24:39;;;;;;;27.80;19.33;;;;;;;7.35;93.62;103093.81;5109813;28;20043;-56
2022/03/27 04:27:06;;;;;;;26.85;18.52;;;;;;;7.38;93.16;103092.81;5109989;28;20039;-58
2022/03/27 04:29:31;;;;;;;27.02;18.45;;;;;;;7.35;94.00;103080.63;5104991;28;20126;-57
2022/03/27 04:31:56;;;;;;;28.63;19.00;;;;;;;7.35;93.65;103080.63;5104451;28;20685;-57
2022/03/27 04:34:21;;;;;;;29.05;19.13;;;;;;;7.30;93.62;103082.66;5101898;28;20086;-57
2022/03/27 04:36:47;;;;;;;26.95;18.02;;;;;;;7.32;93.64;103086.09;5105543;28;20023;-57
2022/03/27 04:39:13;;;;;;;25.52;18.45;;;;;;;7.33;94.03;103087.78;5111150;28;20023;-56
2022/03/27 04:41:38;;;;;;;25.75;19.08;;;;;;;7.33;93.50;103092.22;5106122;28;20028;-57
2022/03/27 04:44:04;;;;;;;25.85;18.30;;;;;;;7.22;93.74;103079.59;5109074;28;20103;-57
2022/03/27 04:46:30;;;;;;;28.30;18.50;;;;;;;7.27;93.79;103088.13;5110911;28;20138;-57
2022/03/27 04:48:55;;;;;;;28.45;19.33;;;;;;;7.27;94.07;103093.41;5098980;28;20518;-57
2022/03/27 04:51:21;;;;;;;28.73;19.58;;;;;;;7.26;94.15;103089.91;5103747;28;20024;-57
2022/03/27 04:53:47;;;;;;;29.90;20.27;;;;;;;7.26;94.38;103081.16;5108441;28;20588;-57
2022/03/27 04:56:12;;;;;;;28.65;20.55;;;;;;;7.22;94.66;103084.88;5110804;28;20055;-56
2022/03/27 04:58:38;;;;;;;30.98;19.38;;;;;;;7.23;94.21;103081.31;5109005;28;20131;-57
2022/03/27 05:01:03;;;;;;;27.67;19.98;;;;;;;7.20;94.39;103086.78;5100370;28;20434;-57
2022/03/27 05:03:28;;;;;;;27.35;19.63;;;;;;;7.21;94.65;103093.75;5110266;28;20024;-57
2022/03/27 05:05:54;;;;;;;28.58;20.40;;;;;;;7.22;95.04;103095.44;5109633;28;20074;-57
2022/03/27 05:08:20;;;;;;;28.67;19.90;;;;;;;7.28;94.34;103100.38;5109470;28;20028;-57
2022/03/27 05:10:46;;;;;;;27.80;19.45;;;;;;;7.30;94.14;103103.78;5108021;28;20644;-56
2022/03/27 05:13:14;;;;;;;28.38;20.23;;;;;;;7.32;94.29;103107.22;5107767;28;20032;-57
2022/03/27 05:15:39;;;;;;;30.05;20.52;;;;;;;7.26;94.05;103102.28;5107645;28;20377;-57
2022/03/27 05:18:05;;;;;;;31.60;21.05;;;;;;;7.20;94.50;103105.25;5102584;28;20035;-57
2022/03/27 05:20:31;;;;;;;34.25;21.88;;;;;;;7.24;94.19;103104.13;5105438;28;20109;-57
2022/03/27 05:22:57;;;;;;;31.58;21.70;;;;;;;7.17;95.40;103108.03;5112308;28;20031;-57
2022/03/27 05:25:22;;;;;;;39.72;23.20;;;;;;;7.20;95.12;103107.88;5107223;28;20038;-57
2022/03/27 05:27:56;;;;;;;32.72;22.25;;;;;;;7.15;95.47;103107.28;5105118;28;20043;-57
2022/03/27 05:30:24;;;;;;;31.65;21.75;;;;;;;7.23;95.29;103107.69;5105871;28;20148;-57
2022/03/27 05:32:50;;;;;;;32.50;22.60;;;;;;;7.22;95.13;103106.88;5108639;28;20030;-57
2022/03/27 05:35:16;;;;;;;33.63;22.65;;;;;;;7.22;95.21;103112.16;5102199;28;20040;-57
2022/03/27 05:37:43;;;;;;;35.15;23.27;;;;;;;7.24;94.86;103118.19;5099434;28;20040;-57
2022/03/27 05:40:11;;;;;;;47.88;23.10;;;;;;;7.27;94.97;103110.06;5100658;28;20122;-57
2022/03/27 05:42:37;;;;;;;32.35;22.92;;;;;;;7.26;94.92;103115.47;5098817;28;20089;-57
2022/03/27 05:45:03;;;;;;;34.35;22.88;;;;;;;7.20;94.99;103126.34;5097850;28;20459;-57
2022/03/27 05:47:29;;;;;;;35.05;23.77;;;;;;;7.15;94.96;103115.19;5102758;28;20031;-57
2022/03/27 05:49:55;;;;;;;37.03;23.77;;;;;;;7.09;95.83;103114.56;5107666;28;20040;-56
2022/03/27 05:52:22;;;;;;;35.30;23.55;;;;;;;7.11;95.40;103115.34;5103268;28;20032;-57
2022/03/27 05:54:47;;;;;;;33.45;22.33;;;;;;;7.05;94.97;103120.94;5102917;28;20089;-56
2022/03/27 05:57:14;;;;;;;37.47;20.00;;;;;;;7.05;95.26;103114.84;5107167;28;20032;-57
2022/03/27 05:59:39;;;;;;;32.50;20.20;;;;;;;6.96;95.31;103117.00;5098729;28;20500;-56
2022/03/27 06:02:05;;;;;;;30.25;18.98;;;;;;;6.94;94.79;103118.03;5103477;28;20059;-56
2022/03/27 06:04:30;;;;;;;30.02;19.58;;;;;;;6.90;94.72;103124.41;5108608;28;20050;-57
2022/03/27 06:06:56;;;;;;;28.13;18.27;;;;;;;6.86;95.20;103132.47;5107141;28;20055;-56
2022/03/27 06:09:21;;;;;;;28.38;18.10;;;;;;;6.88;94.83;103128.91;5104689;28;20032;-57
2022/03/27 06:11:46;;;;;;;29.45;18.00;;;;;;;6.81;94.90;103145.03;5105916;28;20043;-57
2022/03/27 06:14:12;;;;;;;31.10;17.40;;;;;;;6.77;94.59;103140.88;5101244;28;20039;-57
2022/03/27 06:16:37;;;;;;;30.23;18.15;;;;;;;6.71;94.74;103143.84;5099271;28;20389;-56
2022/03/27 06:19:02;;;;;;;26.58;16.50;;;;;;;6.71;94.51;103135.91;5101928;28;20347;-57
2022/03/27 06:21:28;;;;;;;28.40;16.98;;;;;;;6.70;94.99;103142.09;5108710;28;20031;-57
2022/03/27 06:23:53;;;;;;;28.55;17.10;;;;;;;6.80;94.44;103143.34;5107790;28;20052;-57
2022/03/27 06:26:18;;;;;;;29.73;17.48;;;;;;;6.64;94.95;103131.88;5106604;28;20107;-57
2022/03/27 06:28:43;;;;;;;33.00;18.67;;;;;;;6.73;94.76;103139.31;5112509;28;20107;-57
2022/03/27 06:31:09;;;;;;;30.80;18.48;;;;;;;6.71;95.10;103142.03;5104346;28;20036;-57
2022/03/27 06:33:35;;;;;;;33.28;19.08;;;;;;;6.71;95.15;103133.28;5111522;28;20059;-57
2022/03/27 06:36:01;;;;;;;34.05;19.50;;;;;;;6.70;95.61;103144.75;5108626;28;20375;-55
2022/03/27 06:38:28;;;;;;;33.55;19.20;;;;;;;6.75;95.60;103148.00;5101272;28;20024;-56
2022/03/27 06:40:54;;;;;;;34.97;19.73;;;;;;;6.71;95.11;103149.94;5103101;28;20038;-57
2022/03/27 06:43:19;;;;;;;35.00;20.58;;;;;;;6.76;95.74;103149.69;5110851;28;20385;-57
2022/03/27 06:45:44;;;;;;;35.60;20.73;;;;;;;6.79;95.43;103152.19;5101685;28;20433;-57
2022/03/27 06:48:10;;;;;;;37.13;21.60;;;;;;;6.82;95.81;103151.19;5107481;28;20024;-57
2022/03/27 06:50:35;;;;;;;35.85;21.05;;;;;;;6.90;95.85;103140.25;5099565;28;20038;-57
2022/03/27 06:53:00;;;;;;;36.78;21.48;;;;;;;6.93;95.33;103147.97;5103087;28;20390;-57
2022/03/27 06:55:27;;;;;;;37.92;21.15;;;;;;;6.92;94.78;103151.56;5100499;28;20089;-56
2022/03/27 06:57:54;;;;;;;37.60;21.92;;;;;;;6.90;95.52;103148.97;5103407;28;20040;-57
2022/03/27 07:03:03;;;;;;;44.97;21.23;;;;;;;6.83;95.03;103150.25;5101620;28;20116;-56
2022/03/27 07:05:39;;;;;;;41.58;20.20;;;;;;;6.79;94.81;103152.19;5101849;28;20035;-57
2022/03/27 07:08:14;;;;;;;42.78;20.83;;;;;;;6.86;94.62;103148.28;5103196;28;20039;-56
2022/03/27 07:10:42;;;;;;;47.45;21.80;;;;;;;6.77;95.60;103154.06;5100948;28;20027;-56
2022/03/27 07:13:09;;;;;;;37.38;20.65;;;;;;;6.81;94.91;103155.59;5103322;28;20035;-56
2022/03/27 07:15:36;;;;;;;37.45;20.70;;;;;;;6.81;95.04;103155.59;5104617;28;20498;-57
2022/03/27 07:18:01;;;;;;;41.40;22.17;;;;;;;6.75;95.49;103148.00;5102349;28;20088;-56
2022/03/27 07:20:32;;;;;;;40.75;22.38;;;;;;;6.81;95.33;103147.69;5105220;28;20027;-57
2022/03/27 07:23:00;;;;;;;42.97;22.73;;;;;;;6.73;95.90;103141.97;5101289;28;20030;-55
2022/03/27 07:25:28;;;;;;;43.15;23.10;;;;;;;6.78;96.32;103147.84;5102754;28;20461;-56
2022/03/27 07:27:54;;;;;;;47.75;23.58;;;;;;;6.79;96.48;103146.91;5103818;28;20043;-56
2022/03/27 07:30:20;;;;;;;45.30;24.02;;;;;;;6.84;95.79;103144.91;5104867;28;20031;-56
2022/03/27 07:32:48;;;;;;;46.60;24.85;;;;;;;6.87;96.28;103149.16;5104211;28;20030;-56
2022/03/27 07:35:15;;;;;;;47.15;24.63;;;;;;;6.96;96.42;103150.47;5097409;28;20028;-56
2022/03/27 07:37:41;;;;;;;41.42;24.00;;;;;;;7.02;95.41;103158.06;5103879;28;20042;-57
2022/03/27 07:40:08;;;;;;;44.90;23.63;;;;;;;7.04;95.13;103156.19;5107128;28;20507;-57
2022/03/27 07:42:38;;;;;;;47.38;24.83;;;;;;;7.02;95.55;103152.78;5105454;28;20021;-58
2022/03/27 07:45:05;;;;;;;44.80;24.55;;;;;;;7.05;95.20;103157.88;5100745;28;20024;-57
2022/03/27 07:47:31;;;;;;;42.50;23.42;;;;;;;7.01;94.53;103151.09;5099694;28;20065;-57
2022/03/27 07:49:57;;;;;;;42.55;23.55;;;;;;;7.00;94.80;103150.22;5108145;28;20031;-55
2022/03/27 07:52:35;;;;;;;43.20;23.73;;;;;;;7.10;95.79;103155.84;5105246;28;20055;-52
2022/03/27 07:55:01;;;;;;;42.08;24.30;;;;;;;7.11;94.57;103154.91;5107907;28;20736;-51
2022/03/27 07:57:26;;;;;;;44.28;24.25;;;;;;;7.17;94.32;103160.81;5110074;28;20027;-53
2022/03/27 07:59:52;;;;;;;44.20;23.88;;;;;;;7.17;94.65;103150.25;5102971;28;20450;-52
2022/03/27 08:02:19;;;;;;;42.75;23.95;;;;;;;7.22;94.24;103145.59;5106316;28;20024;-57
2022/03/27 08:04:45;;;;;;;41.15;23.08;;;;;;;7.24;94.24;103154.25;5103382;28;20043;-57
2022/03/27 08:07:10;;;;;;;39.58;22.33;;;;;;;7.24;93.70;103157.75;5105173;28;20090;-56
2022/03/27 08:09:36;;;;;;;39.40;22.15;;;;;;;7.21;93.85;103151.81;5105532;28;20040;-55
2022/03/27 08:12:03;;;;;;;38.13;22.25;;;;;;;7.17;93.38;103139.69;5104625;28;20032;-55
2022/03/27 08:14:31;;;;;;;36.70;20.92;;;;;;;7.22;93.61;103150.84;5112052;28;20756;-57
2022/03/27 08:16:57;;;;;;;40.60;22.67;;;;;;;7.20;93.35;103147.47;5108216;28;20035;-57
2022/03/27 08:19:23;;;;;;;37.40;22.27;;;;;;;7.22;93.75;103142.94;5104553;28;20027;-56
2022/03/27 08:21:48;;;;;;;40.90;22.98;;;;;;;7.21;93.21;103151.81;5104762;28;20402;-58
2022/03/27 08:24:13;;;;;;;41.15;22.45;;;;;;;7.27;93.62;103154.09;5105234;28;20028;-56
2022/03/27 08:26:59;;;;;;;40.05;22.63;;;;;;;7.29;92.79;103149.59;5106471;28;20032;-57
2022/03/27 08:29:29;;;;;;;44.42;22.98;;;;;;;7.27;92.38;103156.75;5104960;28;20077;-57
2022/03/27 08:31:56;;;;;;;43.20;23.73;;;;;;;7.11;92.92;103149.63;5103560;28;20105;-57
2022/03/27 08:34:23;;;;;;;43.85;23.00;;;;;;;7.04;93.84;103161.47;5106853;28;20058;-57
2022/03/27 08:36:49;;;;;;;42.15;24.40;;;;;;;7.06;93.75;103158.75;5101389;28;20050;-57
2022/03/27 08:39:15;;;;;;;43.30;23.58;;;;;;;7.13;93.65;103165.41;5102639;28;20036;-56
2022/03/27 08:41:43;;;;;;;41.78;24.17;;;;;;;7.12;93.33;103153.97;5108361;28;20106;-57
2022/03/27 08:44:10;;;;;;;42.33;24.15;;;;;;;7.17;93.50;103155.53;5105390;28;20430;-57
2022/03/27 08:46:36;;;;;;;41.60;23.95;;;;;;;7.24;93.82;103155.13;5106969;28;20359;-57
2022/03/27 08:49:26;;;;;;;43.08;24.08;;;;;;;7.22;93.55;103145.59;5103547;28;20062;-57
2022/03/27 08:52:00;;;;;;;43.65;24.08;;;;;;;7.35;93.21;103151.91;5105288;28;20046;-56
2022/03/27 08:54:34;;;;;;;41.78;23.95;;;;;;;7.31;93.21;103147.75;5106045;28;20426;-57
2022/03/27 08:57:15;;;;;;;41.05;23.77;;;;;;;7.36;92.58;103150.97;5103020;28;20354;-56
2022/03/27 08:59:42;;;;;;;41.58;23.80;;;;;;;7.39;92.86;103158.72;5107698;28;20030;-56
2022/03/27 09:02:13;;;;;;;36.45;21.63;;;;;;;7.44;92.02;103157.63;5108402;28;20039;-57
2022/03/27 09:04:38;;;;;;;36.08;21.63;;;;;;;7.38;91.29;103162.31;5106215;28;20102;-57
2022/03/27 09:07:04;;;;;;;36.28;21.95;;;;;;;7.34;91.16;103168.69;5107718;28;20044;-57
2022/03/27 09:09:35;;;;;;;34.00;20.70;;;;;;;7.39;91.71;103171.94;5108996;28;20035;-56
2022/03/27 09:12:04;;;;;;;29.52;18.65;;;;;;;7.44;91.50;103179.59;5109025;28;20114;-57
2022/03/27 09:14:34;;;;;;;30.05;17.63;;;;;;;7.41;90.99;103163.94;5107857;28;20031;-56
2022/03/27 09:17:04;;;;;;;28.98;17.50;;;;;;;7.46;89.67;103175.06;5107010;28;20114;-57
2022/03/27 09:19:34;;;;;;;28.15;16.70;;;;;;;7.42;89.85;103175.31;5106188;28;20031;-57
2022/03/27 09:22:11;;;;;;;28.60;17.60;;;;;;;7.40;89.87;103172.75;5102991;28;20042;-56
2022/03/27 09:24:38;;;;;;;29.38;17.10;;;;;;;7.43;89.21;103182.31;5102101;28;20106;-57
2022/03/27 09:27:09;;;;;;;26.13;16.15;;;;;;;7.48;89.74;103185.56;5104149;28;20078;-57
2022/03/27 09:30:03;;;;;;;26.95;16.92;;;;;;;7.47;89.03;103178.56;5105357;28;20092;-57
2022/03/27 09:32:35;;;;;;;25.60;15.77;;;;;;;7.18;88.89;103168.66;5108974;28;20034;-57
2022/03/27 09:35:06;;;;;;;24.23;15.47;;;;;;;7.34;89.54;103179.22;5109579;28;20020;-57
2022/03/27 09:37:34;;;;;;;23.98;14.80;;;;;;;7.38;89.21;103186.06;5112692;28;20027;-56
2022/03/27 09:40:01;;;;;;;25.98;15.30;;;;;;;7.46;89.17;103177.72;5110060;28;20490;-57
2022/03/27 09:42:28;;;;;;;28.92;16.63;;;;;;;7.48;89.16;103177.63;5111239;28;20032;-56
2022/03/27 09:45:19;;;;;;;27.92;16.67;;;;;;;7.53;89.44;103167.69;5106122;28;20435;-57
2022/03/27 09:47:46;;;;;;;29.30;16.98;;;;;;;7.53;89.00;103167.69;5110182;28;20024;-57
2022/03/27 09:50:30;;;;;;;26.40;16.20;;;;;;;7.62;88.92;103171.59;5101834;28;20113;-57
2022/03/27 09:53:20;;;;;;;30.60;18.25;;;;;;;7.45;89.15;103161.97;5107030;28;20027;-56
2022/03/27 09:55:50;;;;;;;28.05;17.60;;;;;;;7.31;89.29;103153.03;5095505;28;20040;-56
2022/03/27 09:58:16;;;;;;;30.88;18.25;;;;;;;7.46;89.95;103161.03;5099592;28;20546;-57
2022/03/27 10:00:42;;;;;;;32.03;18.83;;;;;;;7.46;90.04;103156.59;5107513;28;20118;-57
2022/03/27 10:03:09;;;;;;;32.90;19.05;;;;;;;7.51;90.10;103143.16;5110146;28;20371;-56
2022/03/27 10:05:35;;;;;;;32.03;19.75;;;;;;;7.59;89.94;103150.66;5108566;28;20035;-57
2022/03/27 10:08:01;;;;;;;31.10;19.48;;;;;;;7.53;88.77;103136.84;5101984;28;20040;-56
2022/03/27 10:10:27;;;;;;;30.92;18.75;;;;;;;7.57;89.79;103142.81;5102324;28;20074;-56
2022/03/27 10:12:55;;;;;;;31.30;19.42;;;;;;;7.62;89.81;103130.22;5103889;28;20050;-57
2022/03/27 10:15:22;;;;;;;31.55;19.83;;;;;;;7.80;89.30;103138.06;5113023;28;20048;-57
2022/03/27 10:18:12;;;;;;;32.85;20.33;;;;;;;7.89;88.89;103142.78;5112564;28;20062;-56
2022/03/27 10:20:38;;;;;;;31.90;19.77;;;;;;;7.76;89.45;103132.06;5095257;28;20122;-58
2022/03/27 10:23:09;;;;;;;35.63;21.75;;;;;;;7.70;88.49;103121.00;5103069;28;20036;-59
2022/03/27 10:25:42;;;;;;;36.10;21.40;;;;;;;7.85;88.79;103130.69;5107953;28;20028;-59
2022/03/27 10:28:08;;;;;;;29.85;18.85;;;;;;;8.04;88.63;103125.22;5096283;28;20028;-59
2022/03/27 10:30:34;;;;;;;29.60;18.88;;;;;;;8.25;87.55;103126.72;5106106;28;20382;-58
2022/03/27 10:33:01;;;;;;;27.85;18.60;;;;;;;8.32;86.35;103122.75;5102597;28;20035;-58
2022/03/27 10:36:01;;;;;;;28.52;19.33;;;;;;;8.30;86.25;103122.00;5110874;28;20024;-55
2022/03/27 10:38:55;;;;;;;29.75;19.35;;;;;;;8.37;86.76;103125.13;5107778;28;20036;-56
2022/03/27 10:41:36;;;;;;;28.58;18.65;;;;;;;8.44;86.08;103116.75;5110721;28;20031;-55
2022/03/27 10:44:18;;;;;;;28.02;19.50;;;;;;;8.58;85.52;103112.44;5095170;28;20042;-56
2022/03/27 10:46:46;;;;;;;28.77;19.52;;;;;;;8.78;86.15;103102.47;5109023;28;20039;-57
2022/03/27 10:49:17;;;;;;;28.70;19.20;;;;;;;9.01;84.52;103115.16;5111801;28;20031;-56
2022/03/27 10:51:47;;;;;;;28.73;19.13;;;;;;;9.27;85.44;103099.44;5100844;28;20120;-57
2022/03/27 10:54:15;;;;;;;29.58;19.35;;;;;;;9.39;83.59;103105.72;5098079;28;20035;-57
2022/03/27 10:56:45;;;;;;;27.60;18.20;;;;;;;9.53;82.55;103091.59;5100327;28;20058;-59
2022/03/27 10:59:14;;;;;;;29.73;19.45;;;;;;;9.73;81.31;103100.09;5106882;28;20060;-58
2022/03/27 11:01:51;;;;;;;28.90;18.52;;;;;;;9.84;82.00;103091.41;5109263;28;20060;-59
2022/03/27 11:04:21;;;;;;;26.48;17.83;;;;;;;9.94;79.96;103100.47;5099518;28;20462;-58
2022/03/27 11:06:49;;;;;;;28.23;18.73;;;;;;;10.00;79.50;103091.25;5102665;28;20441;-59
2022/03/27 11:09:38;;;;;;;28.10;18.05;;;;;;;10.14;80.16;103086.81;5108367;28;20507;-59
2022/03/27 11:12:28;;;;;;;28.20;18.60;;;;;;;10.18;79.70;103088.31;5094900;28;20096;-58
2022/03/27 11:15:02;;;;;;;27.13;17.67;;;;;;;10.19;77.98;103095.31;5108039;28;20461;-58
2022/03/27 11:17:32;;;;;;;28.27;18.48;;;;;;;10.33;77.54;103084.66;5112407;28;20031;-58
2022/03/27 11:19:58;;;;;;;26.02;17.52;;;;;;;10.38;78.20;103088.75;5110854;28;20043;-58
2022/03/27 11:22:45;;;;;;;25.77;16.75;;;;;;;10.47;77.50;103073.09;5099936;28;20075;-58
2022/03/27 11:25:29;;;;;;;24.33;17.20;;;;;;;10.59;77.67;103076.72;5109578;28;20027;-58
2022/03/27 11:27:57;;;;;;;26.15;17.23;;;;;;;10.77;76.49;103076.41;5114037;28;20027;-59